Time;durP1;ratioP1;P1;durP2;ratioP2;P2;SDS_P1;SDS_P2;PMS_P1;PMS_P2;Temp;Humidity;BMP_temperature;BMP_pressure;BME280_temperature;BME280_humidity;BME280_pressure;Samples;Min_cycle;Max_cycle;Signal;HPM_P1;HPM_P2
2022/02/17 00:01:00;;;;;;;0.00;0.00;;;;;;;;;;5065099;28;20667;-73
2022/02/17 00:03:28;;;;;;;0.00;0.00;;;;;;;;;;5073656;28;20205;-73
2022/02/17 00:05:57;;;;;;;0.00;0.00;;;;;;;;;;5066070;28;20702;-72
2022/02/17 00:08:25;;;;;;;0.00;0.00;;;;;;;;;;5068134;28;20225;-72
2022/02/17 00:10:52;;;;;;;0.00;0.00;;;;;;;;;;5066939;28;20207;-73
2022/02/17 00:13:19;;;;;;;0.00;0.00;;;;;;;;;;5064655;28;20202;-72
2022/02/17 00:15:47;;;;;;;0.00;0.00;;;;;;;;;;5071872;28;20217;-72
2022/02/17 00:18:21;;;;;;;0.00;0.00;;;;;;;;;;5076788;28;20199;-71
2022/02/17 00:20:48;;;;;;;0.00;0.00;;;;;;;;;;5066882;28;20697;-74
2022/02/17 00:23:17;;;;;;;0.00;0.00;;;;;;;;;;5073020;28;20203;-72
2022/02/17 00:25:45;;;;;;;0.00;0.00;;;;;;;;;;5072949;28;20312;-78
2022/02/17 00:28:13;;;;;;;0.00;0.00;;;;;;;;;;5063323;28;20317;-74
2022/02/17 00:30:40;;;;;;;0.00;0.00;;;;;;;;;;5071130;28;20198;-72
2022/02/17 00:33:07;;;;;;;0.00;0.00;;;;;;;;;;5068802;28;20214;-74
2022/02/17 00:35:35;;;;;;;0.00;0.00;;;;;;;;;;5073573;28;20611;-71
2022/02/17 00:38:02;;;;;;;0.00;0.00;;;;;;;;;;5067220;28;20230;-72
2022/02/17 00:40:32;;;;;;;0.00;0.00;;;;;;;;;;5066692;28;20210;-74
2022/02/17 00:42:59;;;;;;;0.00;0.00;;;;;;;;;;5063219;28;20202;-71
2022/02/17 00:45:27;;;;;;;0.00;0.00;;;;;;;;;;5066547;28;20194;-71
2022/02/17 00:47:54;;;;;;;0.00;0.00;;;;;;;;;;5071090;28;20226;-71
2022/02/17 00:50:22;;;;;;;0.00;0.00;;;;;;;;;;5070566;28;20199;-73
2022/02/17 00:52:49;;;;;;;0.00;0.00;;;;;;;;;;5072193;28;20230;-75
2022/02/17 00:55:17;;;;;;;2.30;0.87;;;;;;;;;;5075721;28;20211;-71
2022/02/17 00:57:45;;;;;;;10.20;3.00;;;;;;;;;;5073026;28;20293;-72
2022/02/17 01:00:13;;;;;;;4.63;1.57;;;;;;;;;;5068064;28;20199;-72
2022/02/17 01:02:41;;;;;;;17.50;5.20;;;;;;;;;;5068232;28;20202;-72
2022/02/17 01:05:09;;;;;;;11.70;4.40;;;;;;;;;;5074373;28;20204;-72
2022/02/17 01:07:36;;;;;;;14.90;4.50;;;;;;;;;;5071014;28;20233;-77
2022/02/17 01:10:04;;;;;;;15.60;2.97;;;;;;;;;;5070677;28;20198;-72
2022/02/17 01:12:31;;;;;;;11.80;5.40;;;;;;;;;;5071009;28;20194;-74
2022/02/17 01:15:00;;;;;;;13.13;4.70;;;;;;;;;;5073033;28;20216;-73
2022/02/17 01:17:27;;;;;;;24.83;5.33;;;;;;;;;;5076202;28;20203;-75
2022/02/17 01:19:55;;;;;;;8.90;3.37;;;;;;;;;;5070814;28;20197;-72
2022/02/17 01:22:23;;;;;;;12.97;2.90;;;;;;;;;;5072515;28;20646;-72
2022/02/17 01:24:51;;;;;;;18.33;4.70;;;;;;;;;;5070573;28;20196;-72
2022/02/17 01:27:18;;;;;;;18.90;4.57;;;;;;;;;;5075578;28;20295;-71
2022/02/17 01:29:46;;;;;;;12.03;3.23;;;;;;;;;;5062638;28;20239;-72
2022/02/17 01:32:15;;;;;;;15.97;5.13;;;;;;;;;;5065093;28;20285;-70
2022/02/17 01:34:42;;;;;;;11.73;3.57;;;;;;;;;;5071284;28;20198;-72
2022/02/17 01:37:10;;;;;;;13.90;3.43;;;;;;;;;;5073522;28;20242;-70
2022/02/17 01:39:37;;;;;;;24.93;4.27;;;;;;;;;;5070626;28;20206;-72
2022/02/17 01:42:08;;;;;;;12.10;4.67;;;;;;;;;;5066079;28;20207;-77
2022/02/17 01:44:35;;;;;;;9.73;2.13;;;;;;;;;;5069479;28;20194;-72
2022/02/17 01:47:07;;;;;;;16.47;3.77;;;;;;;;;;5070895;28;20199;-69
2022/02/17 01:49:37;;;;;;;9.87;3.00;;;;;;;;;;5074645;28;20221;-72
2022/02/17 01:52:05;;;;;;;14.83;3.93;;;;;;;;;;5066447;28;20598;-74
2022/02/17 01:54:32;;;;;;;11.77;3.13;;;;;;;;;;5072432;28;20194;-71
2022/02/17 01:57:00;;;;;;;10.47;3.93;;;;;;;;;;5067817;28;20198;-71
2022/02/17 01:59:28;;;;;;;10.97;3.83;;;;;;;;;;5069580;28;20198;-75
2022/02/17 02:01:55;;;;;;;20.83;5.10;;;;;;;;;;5062507;28;20205;-72
2022/02/17 02:04:23;;;;;;;6.67;2.00;;;;;;;;;;5073528;28;20194;-73
2022/02/17 02:06:52;;;;;;;12.27;2.97;;;;;;;;;;5069978;28;20239;-74
2022/02/17 02:09:20;;;;;;;6.87;1.97;;;;;;;;;;5074779;28;20228;-72
2022/02/17 02:11:47;;;;;;;14.80;4.13;;;;;;;;;;5065612;28;20202;-71
2022/02/17 02:14:16;;;;;;;11.77;2.07;;;;;;;;;;5070634;28;20559;-71
2022/02/17 02:16:44;;;;;;;7.47;2.00;;;;;;;;;;5072715;28;20674;-73
2022/02/17 02:19:12;;;;;;;4.83;1.67;;;;;;;;;;5079038;28;20202;-72
2022/02/17 02:21:41;;;;;;;7.23;2.60;;;;;;;;;;5070512;28;20203;-71
2022/02/17 02:24:08;;;;;;;4.40;1.13;;;;;;;;;;5071409;28;20652;-72
2022/02/17 02:26:36;;;;;;;5.53;2.07;;;;;;;;;;5065727;28;20743;-72
2022/02/17 02:29:03;;;;;;;15.90;3.97;;;;;;;;;;5068636;28;20227;-73
2022/02/17 02:31:31;;;;;;;15.27;3.73;;;;;;;;;;5065082;28;20278;-72
2022/02/17 02:33:58;;;;;;;10.37;3.20;;;;;;;;;;5075822;28;20209;-74
2022/02/17 02:36:26;;;;;;;8.93;2.60;;;;;;;;;;5070884;28;20206;-75
2022/02/17 02:38:55;;;;;;;14.57;4.20;;;;;;;;;;5067202;28;20675;-76
2022/02/17 02:41:22;;;;;;;13.13;3.17;;;;;;;;;;5066631;28;20192;-72
2022/02/17 02:43:50;;;;;;;14.73;3.27;;;;;;;;;;5069737;28;20203;-72
2022/02/17 02:46:17;;;;;;;8.80;1.80;;;;;;;;;;5071884;28;20201;-71
2022/02/17 02:48:45;;;;;;;21.47;4.57;;;;;;;;;;5077670;28;20218;-71
2022/02/17 02:51:12;;;;;;;16.47;2.73;;;;;;;;;;5075449;28;20198;-72
2022/02/17 02:53:40;;;;;;;7.03;2.57;;;;;;;;;;5072371;28;20195;-72
2022/02/17 02:56:08;;;;;;;8.70;2.57;;;;;;;;;;5064032;28;20203;-72
2022/02/17 02:58:36;;;;;;;12.20;4.30;;;;;;;;;;5053294;28;20282;-71
2022/02/17 03:01:04;;;;;;;24.87;4.10;;;;;;;;;;5064990;28;20183;-71
2022/02/17 03:03:31;;;;;;;12.47;3.60;;;;;;;;;;5068160;28;20669;-71
2022/02/17 03:05:58;;;;;;;18.70;3.73;;;;;;;;;;5071836;28;20222;-71
2022/02/17 03:08:26;;;;;;;10.63;2.90;;;;;;;;;;5077858;28;20655;-72
2022/02/17 03:10:53;;;;;;;28.37;3.00;;;;;;;;;;5078163;28;20221;-73
2022/02/17 03:13:22;;;;;;;19.83;4.30;;;;;;;;;;5057937;28;20199;-71
2022/02/17 03:15:49;;;;;;;10.30;2.53;;;;;;;;;;5068795;28;20283;-72
2022/02/17 03:18:17;;;;;;;22.83;6.13;;;;;;;;;;5062422;28;20546;-72
2022/02/17 03:20:44;;;;;;;14.17;3.97;;;;;;;;;;5079970;28;20711;-72
2022/02/17 03:23:11;;;;;;;21.80;3.90;;;;;;;;;;5083743;28;20195;-72
2022/02/17 03:25:39;;;;;;;19.47;3.83;;;;;;;;;;5071752;28;20199;-72
2022/02/17 03:28:06;;;;;;;13.93;3.20;;;;;;;;;;5060850;28;20250;-71
2022/02/17 03:30:36;;;;;;;9.93;2.27;;;;;;;;;;5064193;28;20215;-71
2022/02/17 03:33:03;;;;;;;5.30;1.37;;;;;;;;;;5055786;28;20254;-75
2022/02/17 03:35:30;;;;;;;29.87;4.67;;;;;;;;;;5053995;28;20249;-70
2022/02/17 03:37:59;;;;;;;11.00;3.77;;;;;;;;;;5066025;28;20679;-70
2022/02/17 03:40:26;;;;;;;8.20;2.50;;;;;;;;;;5069101;28;20207;-73
2022/02/17 03:42:54;;;;;;;9.60;3.03;;;;;;;;;;5070953;28;20281;-70
2022/02/17 03:45:21;;;;;;;10.67;2.70;;;;;;;;;;5082381;28;20209;-70
2022/02/17 03:47:50;;;;;;;9.00;2.93;;;;;;;;;;5056792;28;20203;-71
2022/02/17 03:50:17;;;;;;;22.00;3.60;;;;;;;;;;5063785;28;20227;-70
2022/02/17 03:52:45;;;;;;;21.63;5.40;;;;;;;;;;5068056;28;20206;-71
2022/02/17 03:55:12;;;;;;;16.47;4.20;;;;;;;;;;5061099;28;20690;-70
2022/02/17 03:57:39;;;;;;;6.03;3.53;;;;;;;;;;5054397;28;20196;-70
2022/02/17 04:00:08;;;;;;;18.27;4.13;;;;;;;;;;5071660;28;20203;-70
2022/02/17 04:02:35;;;;;;;10.33;3.73;;;;;;;;;;5068315;28;20203;-70
2022/02/17 04:05:04;;;;;;;10.93;4.03;;;;;;;;;;5070177;28;20203;-70
2022/02/17 04:07:32;;;;;;;20.00;4.07;;;;;;;;;;5072035;28;20231;-71
2022/02/17 04:09:59;;;;;;;8.77;4.07;;;;;;;;;;5074105;28;20638;-71
2022/02/17 04:12:27;;;;;;;30.90;4.33;;;;;;;;;;5065504;28;20208;-71
2022/02/17 04:14:55;;;;;;;24.60;3.87;;;;;;;;;;5065610;28;20199;-69
2022/02/17 04:17:22;;;;;;;21.57;3.50;;;;;;;;;;5073350;28;20235;-72
2022/02/17 04:19:50;;;;;;;20.67;4.50;;;;;;;;;;5067336;28;20204;-73
2022/02/17 04:22:19;;;;;;;14.00;3.37;;;;;;;;;;5070391;28;20209;-72
2022/02/17 04:24:46;;;;;;;18.83;5.90;;;;;;;;;;5059629;28;20265;-73
2022/02/17 04:27:14;;;;;;;15.00;4.30;;;;;;;;;;5070042;28;20210;-69
2022/02/17 04:29:41;;;;;;;22.60;4.60;;;;;;;;;;5071125;28;20219;-69
2022/02/17 04:32:09;;;;;;;17.47;4.83;;;;;;;;;;5075906;28;20198;-72
2022/02/17 04:34:36;;;;;;;19.37;4.60;;;;;;;;;;5075645;28;20210;-71
2022/02/17 04:37:03;;;;;;;7.60;3.80;;;;;;;;;;5062372;28;20196;-71
2022/02/17 04:39:32;;;;;;;19.03;4.20;;;;;;;;;;5067545;28;20221;-71
2022/02/17 04:44:45;;;;;;;23.17;5.87;;;;;;;;;;5069191;28;20671;-72
2022/02/17 04:47:12;;;;;;;13.17;4.63;;;;;;;;;;5067401;28;21007;-71
2022/02/17 04:49:40;;;;;;;14.97;4.43;;;;;;;;;;5067195;28;20229;-72
2022/02/17 04:52:08;;;;;;;11.53;4.40;;;;;;;;;;5063183;28;20203;-71
2022/02/17 04:54:37;;;;;;;16.13;4.60;;;;;;;;;;5058777;28;20257;-71
2022/02/17 04:57:05;;;;;;;19.73;3.87;;;;;;;;;;5065106;28;20556;-72
2022/02/17 04:59:33;;;;;;;21.13;4.33;;;;;;;;;;5075829;28;20198;-71
2022/02/17 05:02:00;;;;;;;16.63;4.03;;;;;;;;;;5069046;28;20214;-71
2022/02/17 05:04:27;;;;;;;8.20;1.90;;;;;;;;;;5069538;28;20207;-71
2022/02/17 05:06:55;;;;;;;12.83;3.20;;;;;;;;;;5059945;28;20237;-71
2022/02/17 05:09:22;;;;;;;5.97;2.57;;;;;;;;;;5074690;28;20222;-71
2022/02/17 05:11:51;;;;;;;9.40;3.50;;;;;;;;;;5058044;28;20250;-72
2022/02/17 05:14:18;;;;;;;18.37;6.40;;;;;;;;;;5064158;28;20195;-71
2022/02/17 05:16:46;;;;;;;8.27;2.57;;;;;;;;;;5061861;28;20203;-71
2022/02/17 05:19:13;;;;;;;14.20;3.00;;;;;;;;;;5073001;28;20206;-71
2022/02/17 05:21:41;;;;;;;12.30;3.47;;;;;;;;;;5071363;28;20211;-71
2022/02/17 05:24:08;;;;;;;11.07;2.40;;;;;;;;;;5054331;28;20203;-71
2022/02/17 05:26:35;;;;;;;14.00;4.10;;;;;;;;;;5054079;28;20563;-71
2022/02/17 05:29:04;;;;;;;3.93;1.50;;;;;;;;;;5062881;28;20225;-71
2022/02/17 05:31:31;;;;;;;13.83;3.93;;;;;;;;;;5053347;28;20290;-73
2022/02/17 05:33:59;;;;;;;8.83;1.67;;;;;;;;;;5064007;28;20198;-70
2022/02/17 05:36:26;;;;;;;10.07;2.70;;;;;;;;;;5069278;28;20679;-71
2022/02/17 05:38:53;;;;;;;12.70;3.37;;;;;;;;;;5065965;28;20290;-70
2022/02/17 05:41:21;;;;;;;14.23;3.37;;;;;;;;;;5063778;28;20201;-71
2022/02/17 05:43:48;;;;;;;13.70;3.63;;;;;;;;;;5065260;28;20195;-72
2022/02/17 05:46:17;;;;;;;15.17;3.57;;;;;;;;;;5065395;28;20572;-74
2022/02/17 05:48:44;;;;;;;9.30;2.93;;;;;;;;;;5066342;28;20199;-71
2022/02/17 05:51:12;;;;;;;6.77;1.67;;;;;;;;;;5069879;28;20609;-72
2022/02/17 05:53:39;;;;;;;13.80;3.07;;;;;;;;;;5061374;28;20215;-71
2022/02/17 05:56:07;;;;;;;9.73;3.23;;;;;;;;;;5067312;28;20206;-71
2022/02/17 05:58:34;;;;;;;12.03;2.00;;;;;;;;;;5059957;28;20207;-72
2022/02/17 06:01:01;;;;;;;4.07;2.10;;;;;;;;;;5078480;28;20209;-73
2022/02/17 06:03:31;;;;;;;13.47;4.03;;;;;;;;;;5060197;28;20620;-73
2022/02/17 06:05:58;;;;;;;8.77;3.07;;;;;;;;;;5074157;28;20243;-70
2022/02/17 06:08:25;;;;;;;12.80;3.53;;;;;;;;;;5072948;28;20211;-72
2022/02/17 06:10:53;;;;;;;26.03;3.23;;;;;;;;;;5055620;28;21155;-72
2022/02/17 06:13:20;;;;;;;13.53;3.00;;;;;;;;;;5074049;28;20194;-71
2022/02/17 06:15:47;;;;;;;11.63;3.27;;;;;;;;;;5062647;28;20204;-72
2022/02/17 06:18:15;;;;;;;12.73;2.50;;;;;;;;;;5057953;28;20199;-74
2022/02/17 06:20:44;;;;;;;10.83;4.07;;;;;;;;;;5070888;28;20238;-71
2022/02/17 06:23:11;;;;;;;14.30;3.00;;;;;;;;;;5072873;28;20195;-71
2022/02/17 06:25:38;;;;;;;19.97;3.20;;;;;;;;;;5070766;28;20198;-72
2022/02/17 06:28:06;;;;;;;18.03;3.97;;;;;;;;;;5076829;28;20207;-71
2022/02/17 06:30:33;;;;;;;2.23;1.80;;;;;;;;;;5070508;28;20219;-71
2022/02/17 06:33:00;;;;;;;10.00;3.00;;;;;;;;;;5059242;28;20200;-70
2022/02/17 06:35:32;;;;;;;7.73;4.23;;;;;;;;;;5050803;28;20210;-71
2022/02/17 06:38:01;;;;;;;3.77;2.40;;;;;;;;;;5063713;28;20206;-71
2022/02/17 06:40:29;;;;;;;10.30;4.47;;;;;;;;;;5058993;28;20199;-74
2022/02/17 06:42:57;;;;;;;9.90;2.87;;;;;;;;;;5058359;28;20195;-70
2022/02/17 06:45:24;;;;;;;11.90;2.73;;;;;;;;;;5052859;28;20203;-71
2022/02/17 06:47:51;;;;;;;7.50;3.10;;;;;;;;;;5065736;28;20293;-71
2022/02/17 06:50:19;;;;;;;8.27;3.03;;;;;;;;;;5068414;28;20595;-71
2022/02/17 06:52:46;;;;;;;16.60;4.10;;;;;;;;;;5068715;28;20537;-74
2022/02/17 06:55:15;;;;;;;13.63;3.63;;;;;;;;;;5065836;28;20207;-73
2022/02/17 06:57:42;;;;;;;22.87;2.80;;;;;;;;;;5058227;28;20206;-70
2022/02/17 07:00:10;;;;;;;32.50;2.97;;;;;;;;;;5063455;28;20205;-71
2022/02/17 07:02:38;;;;;;;8.37;1.97;;;;;;;;;;5065749;28;20742;-71
2022/02/17 07:05:06;;;;;;;18.03;2.17;;;;;;;;;;5071973;28;20217;-71
2022/02/17 07:07:35;;;;;;;6.10;3.00;;;;;;;;;;5081205;28;20238;-71
2022/02/17 07:10:02;;;;;;;11.97;2.43;;;;;;;;;;5080239;28;20230;-70
2022/02/17 07:12:32;;;;;;;2.80;1.70;;;;;;;;;;5081555;28;20251;-71
2022/02/17 07:15:02;;;;;;;9.20;3.20;;;;;;;;;;5061185;28;20553;-70
2022/02/17 07:17:29;;;;;;;5.53;2.17;;;;;;;;;;5058990;28;20199;-72
2022/02/17 07:19:57;;;;;;;13.63;1.40;;;;;;;;;;5065669;28;20217;-71
2022/02/17 07:22:24;;;;;;;18.40;3.93;;;;;;;;;;5091017;28;20202;-70
2022/02/17 07:24:51;;;;;;;2.47;1.33;;;;;;;;;;5065946;28;20212;-71
2022/02/17 07:27:19;;;;;;;7.43;3.17;;;;;;;;;;5075243;28;20199;-71
2022/02/17 07:29:48;;;;;;;9.20;3.10;;;;;;;;;;5072358;28;20195;-71
2022/02/17 07:32:16;;;;;;;7.27;3.33;;;;;;;;;;5062458;28;20203;-71
2022/02/17 07:34:43;;;;;;;4.63;2.07;;;;;;;;;;5075930;28;20199;-71
2022/02/17 07:37:11;;;;;;;14.73;1.53;;;;;;;;;;5066446;28;20209;-70
2022/02/17 07:39:39;;;;;;;4.23;1.20;;;;;;;;;;5058379;28;20252;-71
2022/02/17 07:42:07;;;;;;;10.47;1.97;;;;;;;;;;5065859;28;20210;-70
2022/02/17 07:44:34;;;;;;;7.90;2.93;;;;;;;;;;5080132;28;20295;-70
2022/02/17 07:47:03;;;;;;;15.30;2.07;;;;;;;;;;5062727;28;20208;-70
2022/02/17 07:49:30;;;;;;;11.77;4.70;;;;;;;;;;5058021;28;20206;-71
2022/02/17 07:51:58;;;;;;;6.73;1.87;;;;;;;;;;5063877;28;20219;-72
2022/02/17 07:54:26;;;;;;;10.37;2.73;;;;;;;;;;5062958;28;20199;-71
2022/02/17 07:56:53;;;;;;;8.10;2.90;;;;;;;;;;5068654;28;20203;-72
2022/02/17 07:59:21;;;;;;;10.13;3.03;;;;;;;;;;5064882;28;20195;-71
2022/02/17 08:01:48;;;;;;;5.00;1.33;;;;;;;;;;5069716;28;20683;-72
2022/02/17 08:04:17;;;;;;;8.87;2.67;;;;;;;;;;5064015;28;20202;-72
2022/02/17 08:06:44;;;;;;;10.10;2.20;;;;;;;;;;5060936;28;20227;-72
2022/02/17 08:09:11;;;;;;;14.13;3.07;;;;;;;;;;5063546;28;20726;-69
2022/02/17 08:11:39;;;;;;;12.37;1.93;;;;;;;;;;5052752;28;20583;-69
2022/02/17 08:14:06;;;;;;;3.60;1.43;;;;;;;;;;5054829;28;20671;-80
2022/02/17 08:16:33;;;;;;;5.07;1.77;;;;;;;;;;5052149;28;20205;-71
2022/02/17 08:19:02;;;;;;;9.03;1.17;;;;;;;;;;5051882;28;20191;-74
2022/02/17 08:21:31;;;;;;;4.73;1.63;;;;;;;;;;5049927;28;20209;-73
2022/02/17 08:23:59;;;;;;;3.57;1.10;;;;;;;;;;5054762;28;20195;-71
2022/02/17 08:26:26;;;;;;;9.87;1.60;;;;;;;;;;5055108;28;20210;-72
2022/02/17 08:28:57;;;;;;;5.23;1.33;;;;;;;;;;5053573;28;20196;-73
2022/02/17 08:31:25;;;;;;;5.70;1.40;;;;;;;;;;5050165;28;20553;-74
2022/02/17 08:33:52;;;;;;;3.97;2.30;;;;;;;;;;5053334;28;20191;-72
2022/02/17 08:36:20;;;;;;;4.77;1.57;;;;;;;;;;5050895;28;20204;-72
2022/02/17 08:38:49;;;;;;;6.30;2.10;;;;;;;;;;5052521;28;20191;-71
2022/02/17 08:41:16;;;;;;;6.90;1.57;;;;;;;;;;5052925;28;20210;-72
2022/02/17 08:43:44;;;;;;;3.20;1.53;;;;;;;;;;5053614;28;20188;-77
2022/02/17 08:46:11;;;;;;;2.43;1.17;;;;;;;;;;5048499;28;20203;-74
2022/02/17 08:48:39;;;;;;;0.60;0.57;;;;;;;;;;5051868;28;20246;-71
2022/02/17 08:51:07;;;;;;;3.77;1.60;;;;;;;;;;5053704;28;20734;-71
2022/02/17 08:53:34;;;;;;;6.50;1.67;;;;;;;;;;5051247;28;21623;-72
2022/02/17 08:56:06;;;;;;;6.77;1.73;;;;;;;;;;5048390;28;20212;-71
2022/02/17 08:58:34;;;;;;;6.30;1.77;;;;;;;;;;5052986;28;20200;-72
2022/02/17 09:01:01;;;;;;;2.33;1.33;;;;;;;;;;5052164;28;20237;-73
2022/02/17 09:03:29;;;;;;;8.73;2.53;;;;;;;;;;5054975;28;20632;-73
2022/02/17 09:05:56;;;;;;;7.07;2.63;;;;;;;;;;5051830;28;21507;-73
2022/02/17 09:08:23;;;;;;;5.00;1.47;;;;;;;;;;5059565;28;20204;-71
2022/02/17 09:10:51;;;;;;;3.93;1.07;;;;;;;;;;5055023;28;20295;-72
2022/02/17 09:13:20;;;;;;;3.87;1.63;;;;;;;;;;5051623;28;20202;-72
2022/02/17 09:15:50;;;;;;;2.33;1.23;;;;;;;;;;5051550;28;20195;-71
2022/02/17 09:18:17;;;;;;;2.43;1.47;;;;;;;;;;5055276;28;20556;-69
2022/02/17 09:20:45;;;;;;;7.50;1.30;;;;;;;;;;5047057;28;20201;-72
2022/02/17 09:23:12;;;;;;;5.87;2.43;;;;;;;;;;5066222;28;20199;-71
2022/02/17 09:25:40;;;;;;;5.23;0.97;;;;;;;;;;5058113;28;20204;-70
2022/02/17 09:28:08;;;;;;;4.93;1.83;;;;;;;;;;5058629;28;20195;-73
2022/02/17 09:30:37;;;;;;;4.73;2.07;;;;;;;;;;5053030;28;20271;-71
2022/02/17 09:33:05;;;;;;;1.37;1.27;;;;;;;;;;5048047;28;20241;-72
2022/02/17 09:35:32;;;;;;;6.20;1.63;;;;;;;;;;5046141;28;20210;-71
2022/02/17 09:38:00;;;;;;;12.80;3.03;;;;;;;;;;5047600;28;20194;-74
2022/02/17 09:40:28;;;;;;;3.20;1.40;;;;;;;;;;5050614;28;20290;-71
2022/02/17 09:42:55;;;;;;;5.73;1.73;;;;;;;;;;5045210;28;20240;-70
2022/02/17 09:45:24;;;;;;;5.80;1.40;;;;;;;;;;5050484;28;20195;-71
2022/02/17 09:47:54;;;;;;;7.20;1.80;;;;;;;;;;5043425;28;20204;-72
2022/02/17 09:50:22;;;;;;;7.00;0.90;;;;;;;;;;5047602;28;20196;-73
2022/02/17 09:52:49;;;;;;;10.07;1.43;;;;;;;;;;5050676;28;20212;-72
2022/02/17 09:55:18;;;;;;;4.23;1.13;;;;;;;;;;5048787;28;20196;-75
2022/02/17 09:57:45;;;;;;;4.40;1.70;;;;;;;;;;5047468;28;20203;-74
2022/02/17 10:00:14;;;;;;;2.57;0.87;;;;;;;;;;5053494;28;21064;-72
2022/02/17 10:02:41;;;;;;;2.20;1.67;;;;;;;;;;5058603;28;20291;-72
2022/02/17 10:05:12;;;;;;;6.07;2.27;;;;;;;;;;5054626;28;20615;-71
2022/02/17 10:07:42;;;;;;;3.40;1.10;;;;;;;;;;5063062;28;20602;-72
2022/02/17 10:10:10;;;;;;;2.10;0.90;;;;;;;;;;5050933;28;20199;-73
2022/02/17 10:12:51;;;;;;;0.87;0.87;;;;;;;;;;5058306;28;20234;-72
2022/02/17 10:15:26;;;;;;;2.80;0.70;;;;;;;;;;5050123;28;20285;-71
2022/02/17 10:18:01;;;;;;;3.70;0.97;;;;;;;;;;5057595;28;20752;-73
2022/02/17 10:20:29;;;;;;;8.13;1.87;;;;;;;;;;5054969;28;20653;-73
2022/02/17 10:23:07;;;;;;;6.37;1.97;;;;;;;;;;5055996;28;20195;-74
2022/02/17 10:25:34;;;;;;;3.10;1.23;;;;;;;;;;5050132;28;20203;-72
2022/02/17 10:28:13;;;;;;;2.53;1.17;;;;;;;;;;5050262;28;20572;-73
2022/02/17 10:30:41;;;;;;;5.97;1.40;;;;;;;;;;5050785;28;20979;-73
2022/02/17 10:33:08;;;;;;;2.47;1.03;;;;;;;;;;5049850;28;20196;-72
2022/02/17 10:35:37;;;;;;;2.00;0.63;;;;;;;;;;5051037;28;20639;-72
2022/02/17 10:38:07;;;;;;;3.27;1.47;;;;;;;;;;5050385;28;20596;-72
2022/02/17 10:40:36;;;;;;;5.30;2.00;;;;;;;;;;5054768;28;20199;-74
2022/02/17 10:43:04;;;;;;;1.13;1.03;;;;;;;;;;5050345;28;20208;-74
2022/02/17 10:45:32;;;;;;;2.13;1.27;;;;;;;;;;5048276;28;20207;-71
2022/02/17 10:48:11;;;;;;;4.83;2.07;;;;;;;;;;5051513;28;20214;-73
2022/02/17 10:50:40;;;;;;;4.43;0.97;;;;;;;;;;5052238;28;20776;-77
2022/02/17 10:53:16;;;;;;;5.83;1.60;;;;;;;;;;5047901;28;21633;-71
2022/02/17 10:55:52;;;;;;;7.27;2.03;;;;;;;;;;5053177;28;20207;-72
2022/02/17 10:58:19;;;;;;;7.23;1.20;;;;;;;;;;5049532;28;20568;-72
2022/02/17 11:00:47;;;;;;;7.93;1.97;;;;;;;;;;5048277;28;20304;-73
2022/02/17 11:03:14;;;;;;;2.63;0.70;;;;;;;;;;5050363;28;20208;-71
2022/02/17 11:05:44;;;;;;;2.87;1.67;;;;;;;;;;5052366;28;20638;-72
2022/02/17 11:08:12;;;;;;;10.93;1.23;;;;;;;;;;5052423;28;20202;-71
2022/02/17 11:10:39;;;;;;;2.87;1.07;;;;;;;;;;5052838;28;20206;-73
2022/02/17 11:13:11;;;;;;;7.13;1.60;;;;;;;;;;5058505;28;20265;-72
2022/02/17 11:15:40;;;;;;;7.80;1.50;;;;;;;;;;5053382;28;20216;-72
2022/02/17 11:18:07;;;;;;;0.10;0.10;;;;;;;;;;5055030;28;20226;-72
2022/02/17 11:20:37;;;;;;;11.33;1.80;;;;;;;;;;5053986;28;20213;-73
2022/02/17 11:23:06;;;;;;;6.97;1.50;;;;;;;;;;5053736;28;20207;-71
2022/02/17 11:25:35;;;;;;;0.47;0.20;;;;;;;;;;5054333;28;20199;-72
2022/02/17 11:28:03;;;;;;;0.80;0.80;;;;;;;;;;5049328;28;20282;-69
2022/02/17 11:30:31;;;;;;;4.60;1.40;;;;;;;;;;5054821;28;20954;-72
2022/02/17 11:33:13;;;;;;;6.90;1.60;;;;;;;;;;5048697;28;20318;-74
2022/02/17 11:35:41;;;;;;;10.00;1.93;;;;;;;;;;5051474;28;20214;-69
2022/02/17 11:41:15;;;;;;;3.70;1.47;;;;;;;;;;5066315;27;20664;-71
2022/02/17 11:43:44;;;;;;;2.33;0.93;;;;;;;;;;5052681;28;20214;-75
2022/02/17 11:46:14;;;;;;;4.07;2.60;;;;;;;;;;5061589;28;20760;-70
2022/02/17 11:48:41;;;;;;;5.00;1.70;;;;;;;;;;5055093;28;20285;-73
2022/02/17 11:51:19;;;;;;;2.47;1.87;;;;;;;;;;5058306;28;20203;-74
2022/02/17 11:53:48;;;;;;;5.47;1.33;;;;;;;;;;5062336;28;20294;-72
2022/02/17 11:56:36;;;;;;;2.27;0.90;;;;;;;;;;5053218;28;20214;-72
2022/02/17 11:59:19;;;;;;;9.03;1.40;;;;;;;;;;5062750;28;20216;-71
2022/02/17 12:01:47;;;;;;;6.23;1.53;;;;;;;;;;5051857;28;20195;-72
2022/02/17 12:04:18;;;;;;;6.63;1.07;;;;;;;;;;5050837;28;20290;-70
2022/02/17 12:06:47;;;;;;;4.10;1.37;;;;;;;;;;5051904;28;20244;-71
2022/02/17 12:09:35;;;;;;;3.53;0.80;;;;;;;;;;5051835;28;20231;-74
2022/02/17 12:12:17;;;;;;;4.73;1.10;;;;;;;;;;5054207;28;20604;-72
2022/02/17 12:14:48;;;;;;;2.43;0.53;;;;;;;;;;5050203;28;20224;-76
2022/02/17 12:17:16;;;;;;;0.93;0.67;;;;;;;;;;5055306;28;20570;-70
2022/02/17 12:19:46;;;;;;;2.50;0.73;;;;;;;;;;5055125;28;20198;-71
2022/02/17 12:22:15;;;;;;;2.23;1.20;;;;;;;;;;5056434;28;20285;-73
2022/02/17 12:24:45;;;;;;;5.73;2.93;;;;;;;;;;5051299;28;20213;-76
2022/02/17 12:27:13;;;;;;;4.80;0.67;;;;;;;;;;5049341;28;20203;-75
2022/02/17 12:29:45;;;;;;;2.47;0.60;;;;;;;;;;5059253;28;20237;-72
2022/02/17 12:32:18;;;;;;;4.43;1.17;;;;;;;;;;5058103;28;20199;-75
2022/02/17 12:34:46;;;;;;;2.10;1.47;;;;;;;;;;5059448;28;20203;-76
2022/02/17 12:37:16;;;;;;;9.10;1.07;;;;;;;;;;5053772;28;20690;-73
2022/02/17 12:39:45;;;;;;;2.67;1.13;;;;;;;;;;5048866;28;20324;-71
2022/02/17 12:42:13;;;;;;;1.03;0.67;;;;;;;;;;5053357;28;20196;-75
2022/02/17 12:44:44;;;;;;;5.67;1.27;;;;;;;;;;5055916;28;20208;-72
2022/02/17 12:47:12;;;;;;;5.40;1.20;;;;;;;;;;5058739;28;20639;-74
2022/02/17 12:49:41;;;;;;;6.03;1.23;;;;;;;;;;5064401;28;20594;-74
2022/02/17 12:52:09;;;;;;;9.73;1.10;;;;;;;;;;5043647;28;20662;-75
2022/02/17 12:54:36;;;;;;;4.03;1.93;;;;;;;;;;5040749;28;20216;-73
2022/02/17 12:57:07;;;;;;;4.53;1.23;;;;;;;;;;5036383;28;20199;-76
2022/02/17 12:59:34;;;;;;;1.23;1.10;;;;;;;;;;5039539;28;20575;-74
2022/02/17 13:02:02;;;;;;;2.70;0.97;;;;;;;;;;5033310;28;20202;-74
2022/02/17 13:04:30;;;;;;;1.70;0.43;;;;;;;;;;5039357;28;20196;-75
2022/02/17 13:07:02;;;;;;;1.90;0.57;;;;;;;;;;5037414;28;20203;-74
2022/02/17 13:09:29;;;;;;;5.53;1.43;;;;;;;;;;5033880;28;20228;-71
2022/02/17 13:11:58;;;;;;;6.50;2.43;;;;;;;;;;5035950;28;20211;-74
2022/02/17 13:14:28;;;;;;;1.80;0.50;;;;;;;;;;5039101;28;20656;-74
2022/02/17 13:16:56;;;;;;;1.83;0.60;;;;;;;;;;5033641;28;20208;-75
2022/02/17 13:19:37;;;;;;;2.40;1.47;;;;;;;;;;5046220;28;20789;-74
2022/02/17 13:22:06;;;;;;;5.53;1.03;;;;;;;;;;5040869;28;20195;-71
2022/02/17 13:24:33;;;;;;;5.27;1.13;;;;;;;;;;5040319;28;20230;-74
2022/02/17 13:27:11;;;;;;;0.20;0.20;;;;;;;;;;5041865;28;20210;-74
2022/02/17 13:29:54;;;;;;;1.67;1.07;;;;;;;;;;5031597;28;20242;-75
2022/02/17 13:32:22;;;;;;;2.20;0.83;;;;;;;;;;5043215;28;20207;-74
2022/02/17 13:34:49;;;;;;;11.83;1.00;;;;;;;;;;5033340;28;20208;-75
2022/02/17 13:37:18;;;;;;;1.90;0.83;;;;;;;;;;5034028;28;20262;-73
2022/02/17 13:39:58;;;;;;;6.23;1.27;;;;;;;;;;5035555;28;20238;-74
2022/02/17 13:42:26;;;;;;;4.30;0.87;;;;;;;;;;5030721;28;20227;-70
2022/02/17 13:44:54;;;;;;;6.97;2.20;;;;;;;;;;5039098;28;20731;-72
2022/02/17 13:47:21;;;;;;;7.70;0.90;;;;;;;;;;5039259;28;20203;-72
2022/02/17 13:49:58;;;;;;;2.17;0.50;;;;;;;;;;5037933;28;20265;-73
2022/02/17 13:52:30;;;;;;;2.43;0.27;;;;;;;;;;5036186;28;20302;-71
2022/02/17 13:54:58;;;;;;;3.20;0.73;;;;;;;;;;5036220;28;20227;-71
2022/02/17 13:57:26;;;;;;;9.77;0.67;;;;;;;;;;5030045;28;20199;-73
2022/02/17 13:59:53;;;;;;;0.20;0.10;;;;;;;;;;5035139;28;20251;-74
2022/02/17 14:02:27;;;;;;;1.23;0.70;;;;;;;;;;5037040;28;20193;-72
2022/02/17 14:04:59;;;;;;;1.67;0.47;;;;;;;;;;5035107;28;21816;-73
2022/02/17 14:07:29;;;;;;;2.00;0.67;;;;;;;;;;5039298;28;20204;-72
2022/02/17 14:09:56;;;;;;;0.87;0.63;;;;;;;;;;5033294;28;20228;-73
2022/02/17 14:12:24;;;;;;;0.90;0.50;;;;;;;;;;5035363;28;20748;-72
2022/02/17 14:14:51;;;;;;;4.07;0.43;;;;;;;;;;5037730;28;20291;-74
2022/02/17 14:17:18;;;;;;;1.13;0.30;;;;;;;;;;5044050;28;20191;-73
2022/02/17 14:19:46;;;;;;;3.30;1.30;;;;;;;;;;5053543;28;20717;-72
2022/02/17 14:22:13;;;;;;;7.53;0.90;;;;;;;;;;5038625;28;21846;-74
2022/02/17 14:24:42;;;;;;;1.87;0.97;;;;;;;;;;5037306;28;20206;-72
2022/02/17 14:27:09;;;;;;;6.93;1.07;;;;;;;;;;5039401;28;20208;-73
2022/02/17 14:29:37;;;;;;;2.53;1.00;;;;;;;;;;5043643;28;20195;-71
2022/02/17 14:32:06;;;;;;;4.00;0.83;;;;;;;;;;5043160;28;20224;-73
2022/02/17 14:34:33;;;;;;;1.40;0.93;;;;;;;;;;5044766;28;20260;-73
2022/02/17 14:37:01;;;;;;;0.80;0.13;;;;;;;;;;5040367;28;20598;-71
2022/02/17 14:39:28;;;;;;;3.77;1.17;;;;;;;;;;5039680;28;20243;-73
2022/02/17 14:41:59;;;;;;;0.80;0.60;;;;;;;;;;5047615;28;20203;-71
2022/02/17 14:44:27;;;;;;;0.40;0.40;;;;;;;;;;5040193;28;20226;-70
2022/02/17 14:46:54;;;;;;;4.30;0.80;;;;;;;;;;5035796;28;20195;-70
2022/02/17 14:49:21;;;;;;;3.77;1.10;;;;;;;;;;5042517;28;20280;-73
2022/02/17 14:51:49;;;;;;;0.53;0.20;;;;;;;;;;5041256;28;20571;-76